createdAt,value
2023-03-30T00:01:02.736Z,90.00
2023-03-30T00:03:30.512Z,89.20
2023-03-30T00:06:05.372Z,89.60
2023-03-30T00:08:33.465Z,87.60
2023-03-30T00:11:06.487Z,85.50
2023-03-30T00:13:34.922Z,85.80
2023-03-30T00:16:03.680Z,86.90
2023-03-30T00:18:30.858Z,87.10
2023-03-30T00:21:03.134Z,87.30
2023-03-30T00:23:31.000Z,86.90
2023-03-30T00:25:58.616Z,86.70
2023-03-30T00:28:26.439Z,85.80
2023-03-30T00:30:53.883Z,85.20
2023-03-30T00:33:27.756Z,85.70
2023-03-30T00:36:04.938Z,87.40
2023-03-30T00:38:32.053Z,86.00
2023-03-30T00:41:02.059Z,84.40
2023-03-30T00:43:29.531Z,86.40
2023-03-30T00:45:57.904Z,85.10
2023-03-30T00:48:45.217Z,83.10
2023-03-30T00:51:14.089Z,84.70
2023-03-30T00:53:50.370Z,85.60
2023-03-30T00:56:23.090Z,84.90
2023-03-30T00:58:50.853Z,83.20
2023-03-30T01:01:25.976Z,85.70
2023-03-30T01:03:54.178Z,84.50
2023-03-30T01:06:24.546Z,85.00
2023-03-30T01:08:53.193Z,86.10
2023-03-30T01:11:21.307Z,86.10
2023-03-30T01:13:51.692Z,87.10
2023-03-30T01:16:44.226Z,87.60
2023-03-30T01:19:49.651Z,88.60
2023-03-30T01:23:07.489Z,89.90
2023-03-30T01:26:32.962Z,90.40
2023-03-30T01:29:37.139Z,91.40
2023-03-30T01:32:58.413Z,92.30
2023-03-30T01:36:10.577Z,93.30
2023-03-30T01:39:20.628Z,94.20
2023-03-30T01:45:19.205Z,99.70
2023-03-30T01:48:15.266Z,99.90
2023-03-30T01:51:01.892Z,99.90
2023-03-30T01:53:46.629Z,99.90
2023-03-30T01:56:36.278Z,99.90
2023-03-30T01:59:39.447Z,99.90
2023-03-30T02:05:06.167Z,99.90
2023-03-30T02:07:35.898Z,99.90
2023-03-30T02:10:08.245Z,99.90
2023-03-30T02:12:37.294Z,99.90
2023-03-30T02:15:08.974Z,99.90
2023-03-30T02:17:38.199Z,99.90
2023-03-30T02:20:09.543Z,99.90
2023-03-30T02:22:37.085Z,99.90
2023-03-30T02:25:05.638Z,99.90
2023-03-30T02:27:33.887Z,99.90
2023-03-30T02:30:01.180Z,99.90
2023-03-30T02:32:33.690Z,99.90
2023-03-30T02:35:37.152Z,99.90
2023-03-30T02:38:44.728Z,99.90
2023-03-30T02:41:49.326Z,99.90
2023-03-30T02:44:32.358Z,99.90
2023-03-30T02:47:26.145Z,99.90
2023-03-30T02:50:14.658Z,99.90
2023-03-30T02:52:59.296Z,99.90
2023-03-30T02:55:39.948Z,99.90
2023-03-30T02:58:26.833Z,99.90
2023-03-30T03:01:43.001Z,99.90
2023-03-30T03:04:18.271Z,99.90
2023-03-30T03:07:02.602Z,99.90
2023-03-30T03:09:30.849Z,99.90
2023-03-30T03:11:58.483Z,99.90
2023-03-30T03:14:30.792Z,99.90
2023-03-30T03:16:57.979Z,99.90
2023-03-30T03:19:32.500Z,99.90
2023-03-30T03:22:00.241Z,99.90
2023-03-30T03:24:29.839Z,99.90
2023-03-30T03:27:29.553Z,99.90
2023-03-30T03:30:08.423Z,99.90
2023-03-30T03:32:42.888Z,99.90
2023-03-30T03:35:10.541Z,99.90
2023-03-30T03:37:38.420Z,99.90
2023-03-30T03:40:06.746Z,99.90
2023-03-30T03:42:34.331Z,99.90
2023-03-30T03:45:09.790Z,99.90
2023-03-30T03:47:46.927Z,99.90
2023-03-30T03:50:14.254Z,99.90
2023-03-30T03:52:41.589Z,99.90
2023-03-30T03:55:09.515Z,99.90
2023-03-30T03:57:39.604Z,99.90
2023-03-30T04:00:15.786Z,99.90
2023-03-30T04:02:45.617Z,99.90
2023-03-30T04:05:13.533Z,99.90
2023-03-30T04:07:40.663Z,99.90
2023-03-30T04:10:08.619Z,99.90
2023-03-30T04:12:57.040Z,99.90
2023-03-30T04:15:46.681Z,99.90
2023-03-30T04:18:35.648Z,99.90
2023-03-30T04:21:17.780Z,99.90
2023-03-30T04:24:20.271Z,99.90
2023-03-30T04:27:10.263Z,99.90
2023-03-30T04:29:58.684Z,99.90
2023-03-30T04:32:47.302Z,99.90
2023-03-30T04:35:49.684Z,99.90
2023-03-30T04:38:42.951Z,99.90
2023-03-30T04:41:26.662Z,99.90
2023-03-30T04:44:12.865Z,99.90
2023-03-30T04:46:55.054Z,99.90
2023-03-30T04:49:45.360Z,99.90
2023-03-30T04:52:31.464Z,99.90
2023-03-30T04:55:25.665Z,99.90
2023-03-30T04:58:04.541Z,99.90
2023-03-30T05:00:58.447Z,99.90
2023-03-30T05:03:48.536Z,99.90
2023-03-30T05:06:42.143Z,99.90
2023-03-30T05:09:42.790Z,99.90
2023-03-30T05:12:45.202Z,99.90
2023-03-30T05:15:18.099Z,99.90
2023-03-30T05:18:14.433Z,99.90
2023-03-30T05:21:13.662Z,99.90
2023-03-30T05:24:12.360Z,99.90
2023-03-30T05:27:02.756Z,99.90
2023-03-30T05:32:28.698Z,99.90
2023-03-30T05:35:25.062Z,99.90
2023-03-30T05:38:04.954Z,99.90
2023-03-30T05:41:07.729Z,99.90
2023-03-30T05:43:52.630Z,99.90
2023-03-30T05:46:53.014Z,99.90
2023-03-30T05:49:43.630Z,99.90
2023-03-30T05:52:21.649Z,99.90
2023-03-30T05:55:16.851Z,99.90
2023-03-30T05:57:53.934Z,99.90
2023-03-30T06:00:45.070Z,99.90
2023-03-30T06:03:22.267Z,99.90
2023-03-30T06:05:49.525Z,99.90
2023-03-30T06:08:16.656Z,99.90
2023-03-30T06:10:52.740Z,99.90
2023-03-30T06:13:19.910Z,99.90
2023-03-30T06:15:51.012Z,99.90
2023-03-30T06:18:25.632Z,99.90
2023-03-30T06:20:58.216Z,99.90
2023-03-30T06:23:25.808Z,99.90
2023-03-30T06:25:55.952Z,99.90
2023-03-30T06:28:28.953Z,99.90
2023-03-30T06:30:56.312Z,99.90
2023-03-30T06:33:26.063Z,99.90
2023-03-30T06:35:57.336Z,99.90
2023-03-30T06:38:24.668Z,99.90
2023-03-30T06:40:53.554Z,99.90
2023-03-30T06:43:25.556Z,99.90
2023-03-30T06:46:09.536Z,99.90
2023-03-30T06:48:36.914Z,99.90
2023-03-30T06:51:36.128Z,99.90
2023-03-30T06:54:05.131Z,99.90
2023-03-30T06:56:32.291Z,99.90
2023-03-30T06:59:10.676Z,99.90
2023-03-30T07:01:57.996Z,99.90
2023-03-30T07:04:39.162Z,99.90
2023-03-30T07:07:29.534Z,99.90
2023-03-30T07:09:56.653Z,99.90
2023-03-30T07:12:24.153Z,99.90
2023-03-30T07:14:52.281Z,99.90
2023-03-30T07:17:19.401Z,99.90
2023-03-30T07:19:46.588Z,99.90
2023-03-30T07:22:13.791Z,99.90
2023-03-30T07:24:41.184Z,99.90
2023-03-30T07:27:08.858Z,99.90
2023-03-30T07:29:37.974Z,99.90
2023-03-30T07:32:05.431Z,99.90
2023-03-30T07:34:33.678Z,99.90
2023-03-30T07:37:01.804Z,99.90
2023-03-30T07:39:33.943Z,99.90
2023-03-30T07:42:04.564Z,99.90
2023-03-30T07:44:32.042Z,99.50
2023-03-30T07:47:04.382Z,99.90
2023-03-30T07:49:31.854Z,99.90
2023-03-30T07:51:59.373Z,99.90
2023-03-30T07:54:35.205Z,99.90
2023-03-30T07:57:17.255Z,99.90
2023-03-30T07:59:44.605Z,99.90
2023-03-30T08:02:25.704Z,99.90
2023-03-30T08:04:55.133Z,98.90
2023-03-30T08:07:32.445Z,99.10
2023-03-30T08:10:09.203Z,99.50
2023-03-30T08:12:37.520Z,97.60
2023-03-30T08:15:05.736Z,97.00
2023-03-30T08:17:32.860Z,95.90
2023-03-30T08:20:01.859Z,97.00
2023-03-30T08:22:29.015Z,96.40
2023-03-30T08:24:57.158Z,96.90
2023-03-30T08:27:24.299Z,96.60
2023-03-30T08:29:53.647Z,98.90
2023-03-30T08:32:20.845Z,97.90
2023-03-30T08:34:47.905Z,99.90
2023-03-30T08:37:15.023Z,97.70
2023-03-30T08:39:42.474Z,96.00
2023-03-30T08:42:47.539Z,96.90
2023-03-30T08:45:15.012Z,94.20
2023-03-30T08:47:46.163Z,94.40
2023-03-30T08:50:20.362Z,94.40
2023-03-30T08:52:47.791Z,94.30
2023-03-30T08:55:24.524Z,94.00
2023-03-30T08:58:16.879Z,93.40
2023-03-30T09:01:03.976Z,93.40
2023-03-30T09:03:45.741Z,93.50
2023-03-30T09:06:55.782Z,93.10
2023-03-30T09:09:28.714Z,93.10
2023-03-30T09:12:56.754Z,92.60
2023-03-30T09:15:33.667Z,94.70
2023-03-30T09:18:35.297Z,95.20
2023-03-30T09:21:06.783Z,95.70
2023-03-30T09:23:36.280Z,99.90
2023-03-30T09:45:21.884Z,99.90
2023-03-30T09:47:49.497Z,99.90
2023-03-30T09:50:25.236Z,99.90
2023-03-30T09:53:25.047Z,99.90
2023-03-30T09:56:11.287Z,99.90
2023-03-30T09:58:38.528Z,99.90
2023-03-30T10:01:14.823Z,99.90
2023-03-30T10:03:44.012Z,99.90
2023-03-30T10:06:19.541Z,99.90
2023-03-30T10:08:55.283Z,99.90
2023-03-30T10:11:42.837Z,99.90
2023-03-30T10:14:35.001Z,99.90
2023-03-30T10:17:03.895Z,99.90
2023-03-30T10:19:33.927Z,99.90
2023-03-30T10:22:06.803Z,99.90
2023-03-30T10:24:34.178Z,99.90
2023-03-30T10:27:13.738Z,99.90
2023-03-30T10:29:46.897Z,99.90
2023-03-30T10:32:29.536Z,99.90
2023-03-30T10:35:02.159Z,99.90
2023-03-30T10:37:39.161Z,99.90
2023-03-30T10:40:20.067Z,99.90
2023-03-30T10:42:51.180Z,99.90
2023-03-30T10:45:27.944Z,99.90
2023-03-30T10:48:31.244Z,99.90
2023-03-30T10:51:34.420Z,99.90
2023-03-30T10:54:18.948Z,99.90
2023-03-30T10:56:57.295Z,99.90
2023-03-30T11:00:14.780Z,99.90
2023-03-30T11:03:08.463Z,99.90
2023-03-30T11:05:40.442Z,99.90
2023-03-30T11:08:23.037Z,99.90
2023-03-30T11:10:54.536Z,99.90
2023-03-30T11:13:41.918Z,99.90
2023-03-30T11:16:25.499Z,99.90
2023-03-30T11:19:04.826Z,99.90
2023-03-30T11:21:44.576Z,99.90
2023-03-30T11:24:22.976Z,99.90
2023-03-30T11:27:20.186Z,99.90
2023-03-30T11:29:53.802Z,99.90
2023-03-30T11:32:58.061Z,99.90
2023-03-30T11:36:03.583Z,99.90
2023-03-30T11:38:51.980Z,99.90
2023-03-30T11:41:24.287Z,99.90
2023-03-30T11:43:56.066Z,99.90
2023-03-30T11:46:33.764Z,99.90
2023-03-30T11:49:56.253Z,99.90
2023-03-30T11:52:37.202Z,99.90
2023-03-30T11:55:34.831Z,99.90
2023-03-30T11:58:17.735Z,99.90
2023-03-30T12:01:16.547Z,99.90
2023-03-30T12:03:47.239Z,99.90
2023-03-30T12:07:00.696Z,99.90
2023-03-30T12:09:54.863Z,99.90
2023-03-30T12:12:34.708Z,99.90
2023-03-30T12:15:40.491Z,99.90
2023-03-30T12:18:49.993Z,99.90
2023-03-30T12:21:39.245Z,99.90
2023-03-30T12:24:50.685Z,99.90
2023-03-30T12:27:18.021Z,99.90
2023-03-30T12:32:28.391Z,99.90
2023-03-30T12:34:57.343Z,99.90
2023-03-30T12:37:33.692Z,99.90
2023-03-30T12:40:22.824Z,99.90
2023-03-30T12:43:06.147Z,99.90
2023-03-30T12:45:34.280Z,99.90
2023-03-30T12:48:36.764Z,99.90
2023-03-30T12:51:58.316Z,99.90
2023-03-30T12:55:11.860Z,99.90
2023-03-30T12:58:26.953Z,99.90
2023-03-30T13:01:35.076Z,99.90
2023-03-30T13:04:17.505Z,99.90
2023-03-30T13:06:56.893Z,99.90
2023-03-30T13:09:59.805Z,99.90
2023-03-30T13:12:42.807Z,99.90
2023-03-30T13:29:15.778Z,99.90
2023-03-30T13:35:27.384Z,99.90
2023-03-30T13:38:29.402Z,99.90
2023-03-30T13:41:40.969Z,99.90
2023-03-30T13:44:43.274Z,99.90
2023-03-30T13:47:57.768Z,99.90
2023-03-30T13:50:28.797Z,99.90
2023-03-30T13:52:59.298Z,99.90
2023-03-30T13:55:33.539Z,99.90
2023-03-30T13:58:20.504Z,99.90
2023-03-30T14:00:52.705Z,99.90
2023-03-30T14:03:44.507Z,99.90
2023-03-30T14:06:22.928Z,99.90
2023-03-30T14:08:58.777Z,99.90
2023-03-30T14:11:37.487Z,99.90
2023-03-30T14:14:05.442Z,99.90
2023-03-30T14:16:36.794Z,99.90
2023-03-30T14:19:38.343Z,99.90
2023-03-30T14:22:14.438Z,99.90
2023-03-30T14:25:07.050Z,99.90
2023-03-30T14:27:38.648Z,97.90
2023-03-30T14:30:24.204Z,99.70
2023-03-30T14:33:12.601Z,98.80
2023-03-30T14:35:45.854Z,97.70
2023-03-30T14:38:22.590Z,97.30
2023-03-30T14:40:51.442Z,95.90
2023-03-30T14:43:24.797Z,94.10
2023-03-30T14:45:54.230Z,97.00
2023-03-30T14:48:30.107Z,94.30
2023-03-30T14:50:57.452Z,93.10
2023-03-30T14:53:27.629Z,96.50
2023-03-30T14:55:58.279Z,92.60
2023-03-30T14:58:27.689Z,92.30
2023-03-30T15:00:58.733Z,91.60
2023-03-30T15:03:33.933Z,93.40
2023-03-30T15:06:05.258Z,93.10
2023-03-30T15:08:36.625Z,93.50
2023-03-30T15:11:12.934Z,94.30
2023-03-30T15:13:44.298Z,93.90
2023-03-30T15:16:18.310Z,93.30
2023-03-30T15:18:45.831Z,93.50
2023-03-30T15:21:14.699Z,92.90
2023-03-30T15:23:44.903Z,93.50
2023-03-30T15:26:12.872Z,92.00
2023-03-30T15:29:00.637Z,93.70
2023-03-30T15:31:28.802Z,92.40
2023-03-30T15:33:58.132Z,92.80
2023-03-30T15:36:37.710Z,91.20
2023-03-30T15:39:23.401Z,91.90
2023-03-30T15:42:01.518Z,89.20
2023-03-30T15:44:29.589Z,87.40
2023-03-30T15:46:58.406Z,90.00
2023-03-30T15:49:40.509Z,90.00
2023-03-30T15:52:38.002Z,86.50
2023-03-30T15:55:28.102Z,88.30
2023-03-30T15:57:55.881Z,87.60
2023-03-30T16:00:27.471Z,85.30
2023-03-30T16:03:02.052Z,88.30
2023-03-30T16:05:32.125Z,83.40
2023-03-30T16:07:59.349Z,80.50
2023-03-30T16:10:30.380Z,81.00
2023-03-30T16:12:59.302Z,82.60
2023-03-30T16:15:29.160Z,86.40
2023-03-30T16:17:56.397Z,81.30
2023-03-30T16:20:26.319Z,80.60
2023-03-30T16:22:53.645Z,80.90
2023-03-30T16:25:34.132Z,83.20
2023-03-30T16:28:16.332Z,81.10
2023-03-30T16:30:46.448Z,82.60
2023-03-30T16:33:13.973Z,84.20
2023-03-30T16:35:41.388Z,81.20
2023-03-30T16:38:20.429Z,82.50
2023-03-30T16:40:58.552Z,81.60
2023-03-30T16:43:27.352Z,81.90
2023-03-30T16:45:54.555Z,83.80
2023-03-30T16:48:22.045Z,81.00
2023-03-30T16:50:56.796Z,80.10
2023-03-30T16:53:24.392Z,78.90
2023-03-30T16:55:51.574Z,78.90
2023-03-30T16:58:18.690Z,78.60
2023-03-30T17:00:48.680Z,73.90
2023-03-30T17:03:16.039Z,74.90
2023-03-30T17:05:48.345Z,74.40
2023-03-30T17:08:24.691Z,79.60
2023-03-30T17:10:53.251Z,76.80
2023-03-30T17:13:20.984Z,78.20
2023-03-30T17:15:48.196Z,75.60
2023-03-30T17:18:21.480Z,78.00
2023-03-30T17:21:16.309Z,73.70
2023-03-30T17:23:44.986Z,74.70
2023-03-30T17:26:12.940Z,76.70
2023-03-30T17:28:40.440Z,73.30
2023-03-30T17:31:17.296Z,75.20
2023-03-30T17:33:45.824Z,72.50
2023-03-30T17:36:22.395Z,74.60
2023-03-30T17:38:50.892Z,74.10
2023-03-30T17:41:19.508Z,72.90
2023-03-30T17:43:48.165Z,75.40
2023-03-30T17:46:17.872Z,73.60
2023-03-30T17:48:45.738Z,74.30
2023-03-30T17:51:13.271Z,74.20
2023-03-30T17:53:40.595Z,74.10
2023-03-30T17:56:07.723Z,74.10
2023-03-30T17:58:36.468Z,72.00
2023-03-30T18:01:07.772Z,71.80
2023-03-30T18:03:35.641Z,72.80
2023-03-30T18:06:03.192Z,70.50
2023-03-30T18:08:30.512Z,70.70
2023-03-30T18:10:59.403Z,71.40
2023-03-30T18:13:28.154Z,71.60
2023-03-30T18:15:56.882Z,71.00
2023-03-30T18:18:26.368Z,71.00
2023-03-30T18:20:59.004Z,72.30
2023-03-30T18:23:26.198Z,73.80
2023-03-30T18:25:53.460Z,74.70
2023-03-30T18:28:23.241Z,73.40
2023-03-30T18:30:53.258Z,72.90
2023-03-30T18:33:21.416Z,72.00
2023-03-30T18:35:50.582Z,73.60
2023-03-30T18:38:20.042Z,74.30
2023-03-30T18:40:50.029Z,74.80
2023-03-30T18:43:17.550Z,74.70
2023-03-30T18:45:46.549Z,77.40
2023-03-30T18:48:17.328Z,76.90
2023-03-30T18:50:49.117Z,72.00
2023-03-30T18:53:18.583Z,74.00
2023-03-30T18:55:51.516Z,74.90
2023-03-30T18:58:21.470Z,75.00
2023-03-30T19:00:49.813Z,75.80
2023-03-30T19:03:17.850Z,76.70
2023-03-30T19:05:45.636Z,78.10
2023-03-30T19:08:14.464Z,78.30
2023-03-30T19:10:43.134Z,78.00
2023-03-30T19:13:17.100Z,76.30
2023-03-30T19:15:45.577Z,76.10
2023-03-30T19:18:13.962Z,76.10
2023-03-30T19:20:42.164Z,76.50
2023-03-30T19:23:12.734Z,76.30
2023-03-30T19:25:41.327Z,76.70
2023-03-30T19:28:09.618Z,78.50
2023-03-30T19:30:39.573Z,80.50
2023-03-30T19:33:09.823Z,80.20
2023-03-30T19:35:39.061Z,80.90
2023-03-30T19:38:06.160Z,81.50
2023-03-30T19:40:33.304Z,81.40
2023-03-30T19:43:00.396Z,82.20
2023-03-30T19:45:27.587Z,82.10
2023-03-30T19:47:54.828Z,81.30
2023-03-30T19:50:25.014Z,80.70
2023-03-30T19:52:52.527Z,81.40
2023-03-30T19:55:20.306Z,83.40
2023-03-30T19:57:47.430Z,84.10
2023-03-30T20:00:17.373Z,82.70
2023-03-30T20:02:47.490Z,87.00
2023-03-30T20:05:15.963Z,89.80
2023-03-30T20:07:46.090Z,90.70
2023-03-30T20:10:19.842Z,89.00
2023-03-30T20:12:48.108Z,85.80
2023-03-30T20:15:15.759Z,85.70
2023-03-30T20:17:43.142Z,85.00
2023-03-30T20:20:12.951Z,87.20
2023-03-30T20:22:42.173Z,90.00
2023-03-30T20:25:11.742Z,90.90
2023-03-30T20:27:39.003Z,91.10
2023-03-30T20:30:07.303Z,91.60
2023-03-30T20:32:35.645Z,91.20
2023-03-30T20:35:03.450Z,91.90
2023-03-30T20:37:30.876Z,92.00
2023-03-30T20:40:03.681Z,92.90
2023-03-30T20:42:32.472Z,92.90
2023-03-30T20:45:01.229Z,93.50
2023-03-30T20:47:30.583Z,94.00
2023-03-30T20:49:59.112Z,94.60
2023-03-30T20:52:26.962Z,94.00
2023-03-30T20:54:54.556Z,93.60
2023-03-30T20:57:22.441Z,93.50
2023-03-30T20:59:52.719Z,93.80
2023-03-30T21:02:20.529Z,94.30
2023-03-30T21:04:49.613Z,94.60
2023-03-30T21:07:18.214Z,94.20
2023-03-30T21:09:45.515Z,94.40
2023-03-30T21:12:12.870Z,95.00
2023-03-30T21:14:39.932Z,95.50
2023-03-30T21:17:07.412Z,95.00
2023-03-30T21:19:34.664Z,95.70
2023-03-30T21:22:01.970Z,96.40
2023-03-30T21:24:29.520Z,97.20
2023-03-30T21:26:56.641Z,96.50
2023-03-30T21:29:23.953Z,96.10
2023-03-30T21:31:51.292Z,94.70
2023-03-30T21:34:18.894Z,94.30
2023-03-30T21:36:46.549Z,94.20
2023-03-30T21:39:14.167Z,94.80
2023-03-30T21:41:41.734Z,95.40
2023-03-30T21:44:08.794Z,95.10
2023-03-30T21:46:35.948Z,95.50
2023-03-30T21:49:03.225Z,96.10
2023-03-30T21:51:31.555Z,97.60
2023-03-30T21:53:59.311Z,98.20
2023-03-30T21:56:29.675Z,97.80
2023-03-30T21:58:57.414Z,96.80
2023-03-30T22:01:25.202Z,96.90
2023-03-30T22:03:53.711Z,97.40
2023-03-30T22:06:21.674Z,96.90
2023-03-30T22:08:48.910Z,97.00
2023-03-30T22:11:18.628Z,96.90
2023-03-30T22:13:48.515Z,96.90
2023-03-30T22:16:32.232Z,96.40
2023-03-30T22:18:59.543Z,95.90
2023-03-30T22:21:34.594Z,96.30
2023-03-30T22:24:07.395Z,96.50
2023-03-30T22:26:35.771Z,96.90
2023-03-30T22:29:03.005Z,97.70
2023-03-30T22:31:30.490Z,97.80
2023-03-30T22:33:57.712Z,98.10
2023-03-30T22:36:30.146Z,98.10
2023-03-30T22:38:58.962Z,99.40
2023-03-30T22:41:26.760Z,99.90
2023-03-30T22:43:56.203Z,99.90
2023-03-30T22:46:25.442Z,99.90
2023-03-30T22:48:55.736Z,99.90
2023-03-30T22:51:26.778Z,99.90
2023-03-30T22:53:59.486Z,99.90
2023-03-30T22:56:28.555Z,99.90
2023-03-30T22:58:56.144Z,99.90
2023-03-30T23:01:23.845Z,99.90
2023-03-30T23:03:53.105Z,99.90
2023-03-30T23:06:20.495Z,99.90
2023-03-30T23:08:48.850Z,99.90
2023-03-30T23:11:16.706Z,99.90
2023-03-30T23:13:43.944Z,99.90
2023-03-30T23:16:11.189Z,99.90
2023-03-30T23:18:39.021Z,99.90
2023-03-30T23:21:07.814Z,99.90
2023-03-30T23:23:38.733Z,99.90
2023-03-30T23:26:10.664Z,99.90
2023-03-30T23:28:40.425Z,99.90
2023-03-30T23:31:13.037Z,99.90
2023-03-30T23:33:41.117Z,99.90
2023-03-30T23:36:09.753Z,99.90
2023-03-30T23:38:37.622Z,99.90
2023-03-30T23:41:06.261Z,99.90
2023-03-30T23:43:33.529Z,99.90
2023-03-30T23:46:00.759Z,99.90
2023-03-30T23:48:27.947Z,99.90
2023-03-30T23:50:56.878Z,99.90
2023-03-30T23:53:25.139Z,99.90
2023-03-30T23:55:52.685Z,99.90
2023-03-30T23:58:20.077Z,99.90
